Time;durP1;ratioP1;P1;durP2;ratioP2;P2;SDS_P1;SDS_P2;PMS_P1;PMS_P2;Temp;Humidity;BMP_temperature;BMP_pressure;BME280_temperature;BME280_humidity;BME280_pressure;Samples;Min_cycle;Max_cycle;Signal;HPM_P1;HPM_P2
2022/08/25 00:01:46;;;;;;;;;18.75;17.25;;;;;26.90;37.90;100836.25;5045384;28;45529;-56
2022/08/25 00:04:15;;;;;;;;;15.75;15.00;;;;;26.88;38.33;100838.25;5075390;28;46165;-56
2022/08/25 00:06:42;;;;;;;;;16.50;15.25;;;;;26.87;37.90;100841.91;5063062;28;45876;-56
2022/08/25 00:09:09;;;;;;;;;15.75;15.50;;;;;26.84;38.20;100839.53;5077300;27;45501;-56
2022/08/25 00:11:36;;;;;;;;;17.75;14.25;;;;;26.83;38.58;100847.72;5074229;28;45555;-56
2022/08/25 00:14:05;;;;;;;;;17.50;13.75;;;;;26.81;38.16;100844.34;5069046;28;46381;-56
2022/08/25 00:16:31;;;;;;;;;17.50;15.75;;;;;26.78;38.49;100848.16;5053955;27;45848;-55
2022/08/25 00:19:02;;;;;;;;;17.75;15.00;;;;;26.77;38.23;100849.13;5068289;28;45295;-56
2022/08/25 00:21:30;;;;;;;;;22.50;16.50;;;;;26.75;38.30;100847.59;5073645;27;45269;-57
2022/08/25 00:23:55;;;;;;;;;21.25;16.00;;;;;26.73;38.49;100838.84;5053920;28;46023;-57
2022/08/25 00:26:21;;;;;;;;;24.25;21.00;;;;;26.70;38.43;100831.91;5052523;28;52554;-56
2022/08/25 00:28:46;;;;;;;;;23.75;19.75;;;;;26.70;38.34;100826.53;5081724;27;50193;-56
2022/08/25 00:31:13;;;;;;;;;17.25;16.25;;;;;26.67;38.31;100825.00;5056822;28;45581;-54
2022/08/25 00:33:39;;;;;;;;;20.00;17.25;;;;;26.65;38.51;100818.09;5065500;27;45333;-56
2022/08/25 00:36:05;;;;;;;;;16.00;14.25;;;;;26.64;38.83;100814.53;5058741;28;45721;-55
2022/08/25 00:38:30;;;;;;;;;19.00;17.25;;;;;26.63;38.82;100815.56;5056692;28;45252;-56
2022/08/25 00:41:05;;;;;;;;;24.00;19.50;;;;;26.63;38.87;100812.00;5067297;28;45470;-56
2022/08/25 00:44:00;;;;;;;;;25.00;18.25;;;;;26.62;38.69;100821.06;5074687;28;46582;-56
2022/08/25 00:46:37;;;;;;;;;18.00;15.50;;;;;26.61;39.15;100820.19;5069633;27;45362;-56
2022/08/25 00:49:12;;;;;;;;;19.25;15.00;;;;;26.58;38.92;100808.88;5049982;28;45282;-55
2022/08/25 00:51:45;;;;;;;;;16.75;14.25;;;;;26.56;38.80;100811.72;5059165;28;45388;-56
2022/08/25 00:54:15;;;;;;;;;12.00;10.75;;;;;26.55;39.28;100811.84;5060952;27;47320;-56
2022/08/25 00:56:41;;;;;;;;;13.25;11.00;;;;;26.50;39.39;100807.75;5058430;27;45324;-55
2022/08/25 00:59:07;;;;;;;;;16.75;14.25;;;;;26.48;39.13;100803.53;5056908;28;45951;-52
2022/08/25 01:01:33;;;;;;;;;11.75;11.75;;;;;26.45;38.89;100799.28;5063514;27;60006;-56
2022/08/25 01:03:58;;;;;;;;;15.50;12.00;;;;;26.43;39.28;100803.09;5068646;27;46179;-54
2022/08/25 01:06:24;;;;;;;;;10.50;10.50;;;;;26.40;39.27;100811.44;5056808;28;45324;-56
2022/08/25 01:08:51;;;;;;;;;11.25;11.25;;;;;26.37;39.18;100814.44;5069980;27;45466;-56
2022/08/25 01:11:16;;;;;;;;;13.50;12.50;;;;;26.37;39.54;100806.38;5076412;27;67847;-55
2022/08/25 01:13:44;;;;;;;;;15.75;13.25;;;;;26.36;39.13;100810.03;5053350;27;71507;-55
2022/08/25 01:16:12;;;;;;;;;14.00;13.25;;;;;26.36;39.53;100810.03;5061158;28;45507;-56
2022/08/25 01:18:46;;;;;;;;;13.50;11.75;;;;;26.34;39.30;100810.16;5073718;28;45430;-56
2022/08/25 01:21:12;;;;;;;;;13.75;13.50;;;;;26.31;39.34;100807.75;5071496;27;45360;-55
2022/08/25 01:23:38;;;;;;;;;17.50;13.00;;;;;26.30;39.39;100812.28;5065467;28;47188;-56
2022/08/25 01:26:14;;;;;;;;;13.75;12.25;;;;;26.28;39.23;100813.44;5068122;28;52836;-57
2022/08/25 01:29:19;;;;;;;;;14.75;13.75;;;;;26.27;39.37;100814.41;5067438;28;45452;-56
2022/08/25 01:31:28;;;;;;;;;18.50;14.75;;;;;26.25;39.79;100816.41;5072876;27;45351;-56
2022/08/25 01:33:53;;;;;;;;;17.25;15.25;;;;;26.25;39.65;100809.19;5080739;27;46971;-55
2022/08/25 01:36:20;;;;;;;;;18.00;15.00;;;;;26.24;39.52;100807.50;5076276;28;45254;-56
2022/08/25 01:38:46;;;;;;;;;15.25;11.75;;;;;26.23;39.22;100804.97;5055779;28;45350;-54
2022/08/25 01:41:11;;;;;;;;;16.50;12.75;;;;;26.22;39.88;100809.47;5072088;27;45450;-54
2022/08/25 01:43:38;;;;;;;;;14.00;13.75;;;;;26.20;39.60;100805.25;5077582;27;46282;-56
2022/08/25 01:46:03;;;;;;;;;17.25;13.00;;;;;26.19;39.45;100809.75;5074980;27;45686;-56
2022/08/25 01:48:29;;;;;;;;;16.00;14.25;;;;;26.17;40.04;100811.75;5062693;28;45331;-56
2022/08/25 01:50:54;;;;;;;;;11.25;11.25;;;;;26.16;39.90;100810.03;5050814;28;45351;-56
2022/08/25 01:53:29;;;;;;;;;13.50;12.25;;;;;26.14;39.57;100807.50;5070173;27;46251;-56
2022/08/25 01:56:00;;;;;;;;;14.25;13.00;;;;;26.13;39.86;100807.63;5077329;27;45340;-55
2022/08/25 01:58:31;;;;;;;;;13.75;13.00;;;;;26.11;40.03;100796.19;5074013;28;45330;-55
2022/08/25 02:01:00;;;;;;;;;12.25;11.75;;;;;26.09;39.92;100801.69;5047833;28;45234;-55
2022/08/25 02:03:26;;;;;;;;;15.50;14.25;;;;;26.08;40.23;100799.16;5074087;27;46782;-55
2022/08/25 02:05:53;;;;;;;;;19.75;13.50;;;;;26.07;40.00;100797.47;5073292;27;45695;-54
2022/08/25 02:08:21;;;;;;;;;14.50;12.25;;;;;26.06;40.48;100787.72;5072139;28;45350;-55
2022/08/25 02:10:47;;;;;;;;;13.00;13.00;;;;;26.04;40.60;100777.13;5073550;28;45245;-56
2022/08/25 02:13:12;;;;;;;;;15.25;13.25;;;;;26.03;40.29;100772.78;5057536;28;46237;-56
2022/08/25 02:15:43;;;;;;;;;18.75;14.75;;;;;26.01;40.18;100779.25;5068024;28;45242;-56
2022/08/25 02:18:09;;;;;;;;;14.75;14.00;;;;;26.01;40.14;100780.13;5055033;28;45321;-55
2022/08/25 02:20:35;;;;;;;;;14.75;12.75;;;;;25.99;40.15;100773.19;5064469;27;45565;-56
2022/08/25 02:23:00;;;;;;;;;15.25;13.25;;;;;25.97;40.27;100765.28;5066780;28;46039;-55
2022/08/25 02:25:25;;;;;;;;;13.50;12.75;;;;;25.97;40.50;100764.44;5072067;27;60558;-54
2022/08/25 02:27:51;;;;;;;;;16.00;13.00;;;;;25.93;40.07;100762.03;5068595;28;45557;-53
2022/08/25 02:30:16;;;;;;;;;13.75;13.00;;;;;25.93;40.59;100764.72;5064946;28;71925;-54
2022/08/25 02:32:42;;;;;;;;;15.75;13.00;;;;;25.90;40.17;100759.59;5066181;28;45353;-53
2022/08/25 02:35:08;;;;;;;;;16.25;15.00;;;;;25.90;40.23;100753.41;5075386;28;45261;-57
2022/08/25 02:37:34;;;;;;;;;12.50;12.00;;;;;25.88;40.66;100742.81;5075502;27;45439;-55
2022/08/25 02:39:59;;;;;;;;;14.25;12.75;;;;;25.87;40.31;100740.25;5065714;28;45601;-55
2022/08/25 02:42:25;;;;;;;;;16.75;11.50;;;;;25.86;40.34;100743.94;5066001;28;45435;-55
2022/08/25 02:44:51;;;;;;;;;14.25;12.25;;;;;25.84;40.45;100743.25;5068589;27;45813;-55
2022/08/25 02:47:16;;;;;;;;;14.50;12.00;;;;;25.81;40.25;100741.69;5077258;27;45463;-55
2022/08/25 02:49:42;;;;;;;;;12.00;11.00;;;;;25.81;40.32;100741.69;5074869;27;45343;-56
2022/08/25 02:52:07;;;;;;;;;13.00;12.75;;;;;25.80;40.65;100737.31;5075803;27;48486;-56
2022/08/25 02:54:33;;;;;;;;;17.25;14.75;;;;;25.78;40.53;100741.94;5061199;27;45271;-55
2022/08/25 02:56:59;;;;;;;;;16.25;12.50;;;;;25.77;40.52;100735.75;5065794;28;45463;-55
2022/08/25 02:59:24;;;;;;;;;18.00;13.25;;;;;25.76;40.56;100734.06;5074000;28;45478;-54
2022/08/25 03:01:49;;;;;;;;;15.25;12.75;;;;;25.76;40.55;100735.88;5072544;28;71017;-54
2022/08/25 03:04:15;;;;;;;;;12.00;12.00;;;;;25.72;40.25;100735.31;5066401;28;71236;-55
2022/08/25 03:06:40;;;;;;;;;15.00;12.50;;;;;25.71;40.32;100730.09;5064018;28;45542;-54
2022/08/25 03:09:06;;;;;;;;;11.75;11.75;;;;;25.69;40.65;100738.31;5072300;28;45482;-55
2022/08/25 03:11:31;;;;;;;;;14.50;11.50;;;;;25.65;40.25;100731.50;5060399;28;45356;-55
2022/08/25 03:13:57;;;;;;;;;12.75;11.25;;;;;25.65;40.42;100728.81;5073179;28;46607;-54
2022/08/25 03:16:23;;;;;;;;;12.00;11.00;;;;;25.63;40.52;100738.84;5062800;27;60202;-55
2022/08/25 03:18:48;;;;;;;;;11.00;10.00;;;;;25.57;40.57;100732.22;5077121;27;45158;-55
2022/08/25 03:21:14;;;;;;;;;14.25;13.25;;;;;25.53;40.69;100730.81;5061954;28;73313;-55
2022/08/25 03:23:40;;;;;;;;;15.75;10.75;;;;;25.51;40.68;100727.41;5067965;28;45674;-54
2022/08/25 03:28:51;;;;;;;;;13.25;11.25;;;;;25.47;40.74;100719.78;5072070;28;45498;-55
2022/08/25 03:31:17;;;;;;;;;15.50;12.25;;;;;25.43;40.76;100721.03;5071201;28;45382;-54
2022/08/25 03:33:43;;;;;;;;;13.00;13.00;;;;;25.42;40.55;100717.50;5078774;28;45422;-55
2022/08/25 03:36:10;;;;;;;;;13.50;10.75;;;;;25.39;40.56;100715.97;5072500;27;45407;-54
2022/08/25 03:38:37;;;;;;;;;13.75;10.00;;;;;25.35;40.88;100703.81;5072491;28;45449;-55
2022/08/25 03:41:16;;;;;;;;;12.75;11.25;;;;;25.33;40.60;100691.56;5072565;28;47121;-55
2022/08/25 03:43:42;;;;;;;;;13.25;11.50;;;;;25.30;40.92;100687.34;5066146;27;45241;-56
2022/08/25 03:46:08;;;;;;;;;11.00;9.25;;;;;25.29;40.91;100684.78;5078239;27;45447;-55
2022/08/25 03:48:33;;;;;;;;;13.00;11.00;;;;;25.25;40.91;100678.00;5068654;27;45434;-56
2022/08/25 03:50:59;;;;;;;;;12.50;10.50;;;;;25.24;40.83;100677.13;5070376;27;74402;-55
2022/08/25 03:53:24;;;;;;;;;11.00;10.25;;;;;25.24;40.71;100687.84;5069259;27;47015;-55
2022/08/25 03:55:50;;;;;;;;;14.00;12.00;;;;;25.24;40.67;100673.63;5076778;27;68719;-55
2022/08/25 03:58:16;;;;;;;;;15.75;11.00;;;;;25.22;40.92;100679.09;5064101;28;45223;-54
2022/08/25 04:00:42;;;;;;;;;13.25;11.75;;;;;25.22;40.90;100683.63;5071731;27;46661;-55
2022/08/25 04:03:08;;;;;;;;;10.50;10.50;;;;;25.18;40.82;100680.38;5076139;27;45376;-55
2022/08/25 04:05:34;;;;;;;;;12.00;10.00;;;;;25.18;40.78;100683.06;5080041;27;61273;-56
2022/08/25 04:08:00;;;;;;;;;14.25;10.00;;;;;25.18;40.99;100694.59;5075435;27;45238;-56
2022/08/25 04:10:26;;;;;;;;;12.00;9.25;;;;;25.18;40.70;100704.47;5066812;27;45383;-53
2022/08/25 04:12:51;;;;;;;;;11.00;10.50;;;;;25.17;40.94;100700.94;5074344;27;70362;-54
2022/08/25 04:15:17;;;;;;;;;10.00;9.75;;;;;25.16;40.70;100703.75;5067219;28;67594;-55
2022/08/25 04:17:42;;;;;;;;;13.75;12.75;;;;;25.16;40.56;100703.75;5075749;27;45329;-56
2022/08/25 04:20:09;;;;;;;;;10.25;9.75;;;;;25.15;40.73;100704.75;5078848;27;55121;-55
2022/08/25 04:22:36;;;;;;;;;14.00;11.50;;;;;25.15;41.07;100710.94;5075833;27;45432;-54
2022/08/25 04:25:03;;;;;;;;;14.25;13.00;;;;;25.14;40.77;100711.06;5068808;28;45213;-55
2022/08/25 04:27:28;;;;;;;;;14.50;10.75;;;;;25.11;40.86;100709.53;5047069;28;46005;-55
2022/08/25 04:29:53;;;;;;;;;18.75;13.50;;;;;25.08;41.34;100712.47;5071581;27;58935;-56
2022/08/25 04:32:19;;;;;;;;;11.75;11.25;;;;;25.00;41.25;100713.16;5079249;27;45494;-56
2022/08/25 04:34:44;;;;;;;;;14.50;13.25;;;;;24.97;41.49;100720.63;5080724;27;45416;-56
2022/08/25 04:37:10;;;;;;;;;13.75;12.00;;;;;24.93;41.51;100717.38;5080817;27;69671;-55
2022/08/25 04:39:35;;;;;;;;;10.50;10.00;;;;;24.90;41.69;100714.13;5081167;27;45942;-56
2022/08/25 04:42:01;;;;;;;;;14.25;10.00;;;;;24.86;41.93;100718.88;5072959;27;68997;-56
2022/08/25 04:44:27;;;;;;;;;12.00;10.00;;;;;24.86;41.79;100720.69;5078469;27;45475;-56
2022/08/25 04:46:53;;;;;;;;;15.25;12.25;;;;;24.84;41.95;100718.16;5078628;27;45559;-56
2022/08/25 04:49:18;;;;;;;;;15.50;11.75;;;;;24.83;42.04;100732.53;5089393;27;46421;-55
2022/08/25 04:51:43;;;;;;;;;14.50;11.25;;;;;24.80;41.90;100730.94;5076959;27;64644;-56
2022/08/25 04:54:11;;;;;;;;;14.50;13.00;;;;;24.78;42.21;100738.28;5076130;27;65561;-55
2022/08/25 04:56:39;;;;;;;;;13.25;11.50;;;;;24.79;42.28;100739.16;5066920;27;45398;-54
2022/08/25 04:59:08;;;;;;;;;12.50;10.00;;;;;24.78;42.34;100750.81;5073444;27;46731;-54
2022/08/25 05:01:34;;;;;;;;;13.00;11.00;;;;;24.76;42.45;100742.09;5080835;27;45379;-56
2022/08/25 05:04:02;;;;;;;;;15.00;12.00;;;;;24.74;42.17;100741.38;5066669;28;64540;-54
2022/08/25 05:06:28;;;;;;;;;13.25;12.50;;;;;24.73;42.46;100753.03;5063499;27;45531;-56
2022/08/25 05:08:54;;;;;;;;;15.75;11.25;;;;;24.68;42.62;100763.28;5079996;27;46037;-55
2022/08/25 05:11:20;;;;;;;;;15.25;12.75;;;;;24.61;42.66;100768.31;5079959;27;45497;-56
2022/08/25 05:13:47;;;;;;;;;12.75;10.25;;;;;24.55;42.80;100764.34;5068530;28;45423;-55
2022/08/25 05:16:13;;;;;;;;;18.25;13.00;;;;;24.51;42.80;100762.06;5053150;28;45402;-56
2022/08/25 05:18:38;;;;;;;;;13.75;11.75;;;;;24.49;42.90;100774.69;5080651;27;45736;-55
2022/08/25 05:21:06;;;;;;;;;12.75;11.00;;;;;24.44;42.78;100772.44;5074274;27;45388;-56
2022/08/25 05:23:32;;;;;;;;;12.50;11.25;;;;;24.39;43.11;100770.13;5055462;28;45185;-60
2022/08/25 05:26:11;;;;;;;;;12.25;11.00;;;;;24.40;42.97;100773.66;5069792;27;45389;-56
2022/08/25 05:28:37;;;;;;;;;13.50;10.25;;;;;24.43;43.17;100776.06;5070435;27;45303;-56
2022/08/25 05:31:03;;;;;;;;;15.75;12.75;;;;;24.41;42.75;100773.50;5059203;28;45825;-55
2022/08/25 05:33:29;;;;;;;;;12.00;10.25;;;;;24.39;42.97;100777.31;5077784;27;45581;-56
2022/08/25 05:35:54;;;;;;;;;11.25;10.75;;;;;24.40;42.78;100779.88;5073008;27;45288;-55
2022/08/25 05:38:20;;;;;;;;;13.75;10.50;;;;;24.42;42.92;100782.41;5072178;28;68761;-54
2022/08/25 05:40:46;;;;;;;;;13.75;11.00;;;;;24.44;42.98;100785.81;5069786;28;45744;-55
2022/08/25 05:43:13;;;;;;;;;15.50;12.00;;;;;24.44;43.09;100778.63;5077570;28;58851;-55
2022/08/25 05:45:39;;;;;;;;;16.00;13.00;;;;;24.47;42.91;100773.97;5069327;28;45488;-55
2022/08/25 05:48:04;;;;;;;;;14.75;13.50;;;;;24.49;42.75;100769.34;5071962;27;46919;-55
2022/08/25 05:50:30;;;;;;;;;18.00;12.75;;;;;24.51;43.20;100770.09;5074849;27;45402;-56
2022/08/25 05:52:55;;;;;;;;;15.50;13.75;;;;;24.52;43.30;100775.28;5074998;27;62456;-54
2022/08/25 05:55:20;;;;;;;;;15.25;12.75;;;;;24.51;43.18;100767.41;5063480;28;64276;-56
2022/08/25 05:57:46;;;;;;;;;16.25;14.00;;;;;24.55;43.32;100769.69;5067814;27;68131;-55
2022/08/25 06:00:12;;;;;;;;;16.50;13.25;;;;;24.57;43.14;100772.25;5069626;28;45861;-55
2022/08/25 06:02:43;;;;;;;;;14.00;12.75;;;;;24.59;43.42;100773.81;5072155;27;45333;-56
2022/08/25 06:05:28;;;;;;;;;15.75;14.50;;;;;24.63;43.22;100775.25;5077020;27;45361;-56
2022/08/25 06:07:53;;;;;;;;;17.25;15.75;;;;;24.66;43.15;100775.97;5061467;28;47153;-55
2022/08/25 06:10:19;;;;;;;;;16.25;13.00;;;;;24.69;43.07;100768.53;5047791;27;65945;-56
2022/08/25 06:12:45;;;;;;;;;19.75;14.00;;;;;24.73;43.04;100771.78;5079644;28;45330;-56
2022/08/25 06:15:12;;;;;;;;;17.50;15.25;;;;;24.75;43.08;100764.47;5061015;27;45486;-56
2022/08/25 06:17:41;;;;;;;;;17.00;15.00;;;;;24.77;43.15;100766.03;5070393;28;46336;-56
2022/08/25 06:20:12;;;;;;;;;19.25;14.00;;;;;24.78;42.96;100754.34;5072567;27;45708;-56
2022/08/25 06:22:38;;;;;;;;;12.25;11.50;;;;;24.81;42.96;100764.78;5073211;27;45437;-56
2022/08/25 06:25:04;;;;;;;;;23.50;15.50;;;;;24.85;42.96;100764.53;5068869;27;45423;-56
2022/08/25 06:27:30;;;;;;;;;21.75;14.75;;;;;24.87;43.16;100766.06;5073038;27;46557;-54
2022/08/25 06:29:55;;;;;;;;;23.25;14.25;;;;;24.91;42.80;100763.97;5075875;27;45418;-56
2022/08/25 06:32:20;;;;;;;;;15.50;14.50;;;;;24.95;42.89;100758.22;5058540;28;45361;-56
2022/08/25 06:34:46;;;;;;;;;16.25;12.00;;;;;24.96;42.63;100759.06;5048367;28;45360;-57
2022/08/25 06:37:11;;;;;;;;;16.00;12.50;;;;;24.99;42.68;100766.84;5072537;27;59070;-58
2022/08/25 06:39:37;;;;;;;;;16.00;13.75;;;;;25.02;42.69;100767.41;5051305;28;72026;-57
2022/08/25 06:42:02;;;;;;;;;17.00;13.75;;;;;25.06;42.51;100768.00;5072234;27;64316;-56
2022/08/25 06:44:28;;;;;;;;;14.50;11.75;;;;;25.09;42.53;100769.53;5061421;28;45512;-56
2022/08/25 06:46:53;;;;;;;;;15.25;13.00;;;;;25.12;42.50;100774.63;5079509;27;46315;-56
2022/08/25 06:49:19;;;;;;;;;18.75;16.50;;;;;25.15;42.61;100767.19;5068028;28;45242;-56
2022/08/25 06:51:44;;;;;;;;;15.00;14.00;;;;;25.19;42.15;100765.91;5070762;27;45356;-56
2022/08/25 06:54:10;;;;;;;;;15.50;13.00;;;;;25.20;41.92;100764.94;5075198;27;45480;-56
2022/08/25 06:56:38;;;;;;;;;16.00;12.50;;;;;25.25;41.81;100769.94;5061724;28;46870;-56
2022/08/25 06:59:04;;;;;;;;;14.00;9.00;;;;;25.28;41.33;100780.34;5072748;27;45343;-56
2022/08/25 07:01:30;;;;;;;;;11.75;10.25;;;;;25.30;41.22;100766.84;5072368;28;45352;-56
2022/08/25 07:03:58;;;;;;;;;10.75;8.50;;;;;25.35;40.72;100773.47;5070228;28;45490;-57
2022/08/25 07:06:25;;;;;;;;;9.25;8.00;;;;;25.39;39.94;100771.38;5074086;27;46464;-56
2022/08/25 07:08:51;;;;;;;;;10.00;8.00;;;;;25.41;39.60;100779.28;5065920;28;45316;-57
2022/08/25 07:11:17;;;;;;;;;7.00;7.00;;;;;25.39;38.10;100782.09;5055155;28;57053;-58
2022/08/25 07:13:44;;;;;;;;;9.50;7.25;;;;;25.38;38.17;100783.09;5074366;27;45269;-56
2022/08/25 07:16:12;;;;;;;;;8.50;8.25;;;;;25.40;38.32;100773.06;5077803;28;45404;-57
2022/08/25 07:18:38;;;;;;;;;9.50;9.00;;;;;25.43;38.16;100763.91;5068294;28;45182;-57
2022/08/25 07:21:04;;;;;;;;;9.25;7.75;;;;;25.50;38.06;100770.44;5071999;28;63537;-57
2022/08/25 07:23:29;;;;;;;;;7.50;7.00;;;;;25.55;37.98;100773.53;5079256;27;45501;-56
2022/08/25 07:25:55;;;;;;;;;11.00;9.00;;;;;25.57;37.72;100776.94;5075825;27;67961;-56
2022/08/25 07:28:21;;;;;;;;;11.25;9.00;;;;;25.62;37.60;100774.69;5082188;27;45299;-57
2022/08/25 07:30:48;;;;;;;;;7.00;7.00;;;;;25.68;37.63;100786.69;5055575;28;45303;-56
2022/08/25 07:33:14;;;;;;;;;8.75;8.00;;;;;25.71;37.68;100789.06;5079703;27;45503;-54
2022/08/25 07:35:39;;;;;;;;;8.50;8.00;;;;;25.73;37.12;100787.97;5081164;28;74647;-55
2022/08/25 07:38:06;;;;;;;;;8.25;6.50;;;;;25.74;37.56;100778.91;5076297;27;65353;-57
2022/08/25 07:40:34;;;;;;;;;7.75;7.75;;;;;25.75;37.13;100779.78;5081298;27;45345;-56
2022/08/25 07:43:02;;;;;;;;;8.00;8.00;;;;;25.78;37.18;100784.84;5073687;27;45518;-56
2022/08/25 07:45:31;;;;;;;;;8.75;6.75;;;;;25.82;37.59;100785.44;5082533;27;45390;-56
2022/08/25 07:48:09;;;;;;;;;9.00;8.50;;;;;25.82;37.62;100785.44;5074968;27;45704;-56
2022/08/25 07:50:37;;;;;;;;;11.50;9.25;;;;;25.82;37.09;100786.28;5078668;27;45340;-55
2022/08/25 07:53:04;;;;;;;;;8.50;8.00;;;;;25.83;37.13;100785.28;5075895;27;45304;-56
2022/08/25 07:55:30;;;;;;;;;10.00;8.25;;;;;25.86;37.19;100776.13;5076314;27;46643;-56
2022/08/25 07:57:58;;;;;;;;;10.75;9.25;;;;;25.89;37.34;100779.38;5061042;28;45265;-56
2022/08/25 08:00:26;;;;;;;;;8.00;8.00;;;;;25.94;37.39;100778.97;5070382;27;45382;-56
2022/08/25 08:02:51;;;;;;;;;8.25;7.00;;;;;25.97;37.03;100781.38;5081258;27;45548;-56
2022/08/25 08:05:17;;;;;;;;;13.25;9.50;;;;;26.00;36.91;100777.56;5073422;27;73234;-55
2022/08/25 08:07:42;;;;;;;;;11.75;10.50;;;;;26.03;36.86;100779.97;5059466;28;71667;-56
2022/08/25 08:10:11;;;;;;;;;13.25;9.25;;;;;26.06;36.58;100772.47;5078815;27;45354;-56
2022/08/25 08:12:36;;;;;;;;;15.50;10.75;;;;;26.13;36.37;100770.94;5082257;27;45537;-54
2022/08/25 08:15:02;;;;;;;;;9.75;9.50;;;;;26.21;36.73;100762.19;5077364;27;45407;-56
2022/08/25 08:17:28;;;;;;;;;11.50;10.25;;;;;26.30;36.74;100758.63;5071536;28;45199;-55
2022/08/25 08:19:53;;;;;;;;;9.75;9.75;;;;;26.40;36.32;100760.44;5075971;27;68555;-56
2022/08/25 08:22:19;;;;;;;;;8.00;6.00;;;;;26.48;36.78;100768.63;5075823;27;45256;-56
2022/08/25 08:24:46;;;;;;;;;9.00;8.00;;;;;26.56;36.27;100767.91;5054277;28;57187;-57
2022/08/25 08:27:12;;;;;;;;;13.00;11.00;;;;;26.62;36.55;100775.44;5081995;27;45312;-56
2022/08/25 08:29:39;;;;;;;;;8.50;8.00;;;;;26.69;36.19;100785.44;5079836;27;45358;-56
2022/08/25 08:32:06;;;;;;;;;12.25;10.50;;;;;26.75;36.37;100794.72;5074897;27;45523;-57
2022/08/25 08:34:32;;;;;;;;;12.50;12.50;;;;;26.80;36.04;100807.72;5075363;27;45401;-57
2022/08/25 08:36:58;;;;;;;;;14.75;10.50;;;;;26.86;36.18;100801.78;5054163;28;45379;-57
2022/08/25 08:39:24;;;;;;;;;11.75;10.00;;;;;26.91;35.67;100791.44;5079648;27;45461;-55
2022/08/25 08:42:18;;;;;;;;;14.25;8.50;;;;;26.97;34.72;100772.06;5072871;27;45418;-56
2022/08/25 08:44:43;;;;;;;;;16.00;10.00;;;;;27.02;35.09;100787.72;5061286;28;46251;-55
2022/08/25 08:47:41;;;;;;;;;17.33;13.33;;;;;27.05;35.31;100795.50;5069971;27;45438;-55
2022/08/25 08:50:21;;;;;;;;;13.00;11.25;;;;;27.13;34.62;100789.38;5055675;28;45434;-54
2022/08/25 08:52:53;;;;;;;;;11.75;11.75;;;;;27.20;35.02;100780.59;5075818;27;45485;-56
2022/08/25 08:55:32;;;;;;;;;13.00;10.25;;;;;27.27;34.83;100795.16;5054069;28;46423;-56
2022/08/25 08:58:02;;;;;;;;;14.75;12.00;;;;;27.35;34.83;100793.56;5075432;27;45462;-56
2022/08/25 09:00:29;;;;;;;;;9.00;9.00;;;;;27.40;34.91;100797.47;5051703;28;45322;-55
2022/08/25 09:03:09;;;;;;;;;13.25;11.00;;;;;27.47;34.62;100789.66;5052623;28;45405;-55
2022/08/25 09:05:48;;;;;;;;;13.25;8.00;;;;;27.50;35.34;100800.13;5073166;27;45415;-56
2022/08/25 09:08:15;;;;;;;;;18.00;13.00;;;;;27.55;35.31;100813.97;5057202;28;45497;-54
2022/08/25 09:11:12;;;;;;;;;17.75;15.75;;;;;27.60;35.77;100808.13;5068873;28;45504;-55
2022/08/25 09:13:56;;;;;;;;;34.75;23.50;;;;;27.67;35.38;100809.22;5077013;27;45261;-51
2022/08/25 09:16:53;;;;;;;;;19.00;15.00;;;;;27.75;35.54;100806.63;5066034;27;45406;-55
2022/08/25 09:19:34;;;;;;;;;21.00;18.50;;;;;27.85;35.91;100811.91;5058264;28;45819;-57
2022/08/25 09:22:20;;;;;;;;;13.00;11.50;;;;;27.93;36.44;100795.06;5079638;27;45368;-54
2022/08/25 09:24:56;;;;;;;;;15.75;13.50;;;;;27.99;35.92;100803.38;5062779;28;45710;-54
2022/08/25 09:27:38;;;;;;;;;10.25;10.25;;;;;28.05;35.83;100811.81;5062706;28;45492;-56
2022/08/25 09:30:17;;;;;;;;;14.00;13.00;;;;;28.09;35.85;100795.22;5081043;27;45523;-56
2022/08/25 09:32:46;;;;;;;;;16.50;12.50;;;;;28.21;35.30;100799.34;5067891;28;45406;-55
2022/08/25 09:35:25;;;;;;;;;13.00;12.00;;;;;28.28;35.97;100807.66;5074067;28;45280;-56
2022/08/25 09:37:59;;;;;;;;;15.50;10.25;;;;;28.34;35.37;100804.34;5059593;28;46359;-56
2022/08/25 09:40:31;;;;;;;;;21.50;18.75;;;;;28.38;35.12;100813.81;5073926;27;45454;-56
2022/08/25 09:42:58;;;;;;;;;18.00;16.00;;;;;28.41;35.62;100810.78;5067418;28;45304;-56
2022/08/25 09:45:40;;;;;;;;;11.50;11.50;;;;;28.43;34.59;100809.78;5045673;27;45438;-56
2022/08/25 09:48:23;;;;;;;;;15.75;13.50;;;;;28.45;35.42;100811.31;5034908;28;46154;-56
2022/08/25 09:50:58;;;;;;;;;15.00;13.50;;;;;28.49;35.39;100815.41;5067378;27;45239;-56
2022/08/25 09:53:24;;;;;;;;;14.75;13.00;;;;;28.52;34.97;100812.38;5074349;27;45323;-57
2022/08/25 09:55:58;;;;;;;;;14.25;12.25;;;;;28.56;35.63;100812.94;5070202;27;66696;-57
2022/08/25 09:58:24;;;;;;;;;16.50;13.25;;;;;28.60;35.44;100811.66;5048656;28;45263;-57
2022/08/25 10:01:12;;;;;;;;;12.25;12.25;;;;;28.62;35.15;100796.16;5074309;27;45280;-57
2022/08/25 10:03:52;;;;;;;;;14.00;10.50;;;;;28.64;35.45;100804.09;5073611;27;45501;-57
2022/08/25 10:06:18;;;;;;;;;15.00;12.50;;;;;28.67;34.54;100801.06;5067002;27;45178;-57
2022/08/25 10:08:43;;;;;;;;;12.00;11.25;;;;;28.72;34.89;100801.44;5056406;28;45368;-58
2022/08/25 10:11:14;;;;;;;;;13.33;10.00;;;;;28.77;34.86;100791.03;5080135;27;45216;-58
2022/08/25 10:13:45;;;;;;;;;14.25;13.00;;;;;28.81;34.55;100778.09;5069391;28;45470;-57
2022/08/25 10:16:23;;;;;;;;;11.50;11.00;;;;;28.87;34.88;100785.56;5053078;28;45359;-57
2022/08/25 10:18:59;;;;;;;;;11.25;9.75;;;;;28.89;34.43;100787.06;5068992;28;46503;-57
2022/08/25 10:21:25;;;;;;;;;9.25;8.25;;;;;28.95;34.45;100782.88;5079736;27;45830;-57
2022/08/25 10:23:54;;;;;;;;;11.00;9.50;;;;;29.02;34.56;100777.69;5075188;28;61473;-57
2022/08/25 10:26:44;;;;;;;;;8.75;8.75;;;;;29.07;34.31;100775.38;5087384;27;45399;-58
2022/08/25 10:29:19;;;;;;;;;11.00;8.75;;;;;29.12;33.47;100773.88;5066428;28;45408;-55
2022/08/25 10:31:52;;;;;;;;;10.25;9.25;;;;;29.15;33.23;100768.19;5082471;27;45853;-56
2022/08/25 10:34:38;;;;;;;;;9.00;8.00;;;;;29.22;33.07;100768.41;5075151;27;45332;-57
2022/08/25 10:37:20;;;;;;;;;8.00;7.50;;;;;29.29;33.23;100752.44;5072695;28;45636;-56
2022/08/25 10:40:02;;;;;;;;;9.00;9.00;;;;;29.35;32.95;100760.69;5068800;27;45554;-57
2022/08/25 10:42:42;;;;;;;;;10.50;8.75;;;;;29.41;33.14;100758.34;5054478;28;45221;-58
2022/08/25 10:45:41;;;;;;;;;9.25;8.50;;;;;29.48;32.50;100744.06;5073745;28;45412;-58
2022/08/25 10:48:39;;;;;;;;;12.25;9.75;;;;;29.55;32.51;100741.53;5075085;27;45527;-59
2022/08/25 10:51:14;;;;;;;;;12.50;10.25;;;;;29.60;32.41;100739.19;5072141;28;46835;-59
2022/08/25 10:53:46;;;;;;;;;11.50;10.00;;;;;29.63;31.44;100741.56;5061466;27;45485;-59
2022/08/25 10:56:23;;;;;;;;;9.75;9.25;;;;;29.67;32.70;100739.38;5052782;28;45417;-57
2022/08/25 10:59:05;;;;;;;;;11.00;8.75;;;;;29.69;31.97;100745.44;5050210;28;45435;-57
2022/08/25 11:01:36;;;;;;;;;8.25;8.25;;;;;29.68;31.18;100743.75;5066592;27;46984;-56
2022/08/25 11:04:06;;;;;;;;;7.00;6.25;;;;;29.65;30.72;100744.09;5079350;27;45857;-57
2022/08/25 11:06:49;;;;;;;;;9.75;9.00;;;;;29.64;31.38;100743.25;5057190;28;45518;-56
2022/08/25 11:09:20;;;;;;;;;11.25;9.50;;;;;29.63;31.96;100738.84;5049010;28;45495;-56
2022/08/25 11:11:55;;;;;;;;;12.50;11.25;;;;;29.64;31.89;100739.69;5047471;28;47534;-56
2022/08/25 11:14:27;;;;;;;;;9.00;9.00;;;;;29.64;32.09;100737.84;5072891;28;45612;-56
2022/08/25 11:17:12;;;;;;;;;9.75;9.50;;;;;29.66;32.23;100740.34;5054247;28;45468;-57
2022/08/25 11:19:42;;;;;;;;;14.00;12.00;;;;;29.66;32.05;100738.53;5056036;28;45245;-57
2022/08/25 11:22:37;;;;;;;;;13.25;11.75;;;;;29.67;32.17;100734.81;5071709;27;46466;-57
2022/08/25 11:25:29;;;;;;;;;11.50;9.50;;;;;29.68;31.78;100739.19;5051136;28;45733;-56